createdAt,value
2018-06-24T00:00:59.425Z,0.00
2018-06-24T00:01:59.425Z,0.00
2018-06-24T00:02:59.427Z,0.00
2018-06-24T00:03:59.424Z,0.00
2018-06-24T00:04:59.423Z,0.00
2018-06-24T00:05:59.422Z,0.00
2018-06-24T00:06:59.422Z,0.00
2018-06-24T00:07:59.420Z,0.00
2018-06-24T00:08:59.419Z,0.00
2018-06-24T00:09:59.418Z,0.00
2018-06-24T00:10:59.420Z,0.00
2018-06-24T00:11:59.417Z,0.00
2018-06-24T00:12:59.416Z,0.00
2018-06-24T00:13:59.434Z,0.00
2018-06-24T00:14:59.415Z,0.00
2018-06-24T00:15:59.414Z,0.00
2018-06-24T00:16:59.413Z,0.00
2018-06-24T00:17:59.411Z,0.00
2018-06-24T00:18:59.411Z,0.00
2018-06-24T00:19:59.410Z,0.00
2018-06-24T00:20:59.407Z,0.00
2018-06-24T00:21:59.408Z,0.00
2018-06-24T00:22:59.407Z,0.00
2018-06-24T00:23:59.409Z,0.00
2018-06-24T00:24:59.403Z,0.00
2018-06-24T00:25:59.402Z,0.00
2018-06-24T00:26:59.402Z,0.00
2018-06-24T00:27:59.400Z,0.00
2018-06-24T00:28:59.399Z,0.00
2018-06-24T00:29:59.398Z,0.00
2018-06-24T00:30:59.396Z,0.00
2018-06-24T00:31:59.396Z,0.00
2018-06-24T00:32:59.395Z,0.00
2018-06-24T00:33:59.394Z,0.00
2018-06-24T00:34:59.392Z,0.00
2018-06-24T00:35:59.392Z,0.00
2018-06-24T00:36:59.389Z,0.00
2018-06-24T00:37:59.388Z,0.00
2018-06-24T00:38:59.388Z,0.00
2018-06-24T00:39:59.389Z,0.00
2018-06-24T00:40:59.384Z,0.00
2018-06-24T00:41:59.384Z,0.00
2018-06-24T00:42:59.382Z,0.00
2018-06-24T00:43:59.382Z,0.00
2018-06-24T00:44:59.379Z,0.00
2018-06-24T08:30:06.270Z,61664.00
2018-06-24T08:31:06.281Z,60032.00
2018-06-24T08:32:06.291Z,59648.00
2018-06-24T08:33:06.302Z,55264.00
2018-06-24T08:34:06.315Z,55744.00
2018-06-24T08:35:06.323Z,63968.00
2018-06-24T08:36:06.341Z,59904.00
2018-06-24T08:37:06.349Z,54144.00
2018-06-24T08:38:06.356Z,54848.00
2018-06-24T08:39:06.409Z,60128.00
2018-06-24T08:40:06.382Z,59584.00
2018-06-24T08:41:06.390Z,59232.00
2018-06-24T08:42:06.403Z,59456.00
2018-06-24T08:43:06.416Z,58368.00
2018-06-24T08:44:06.430Z,56608.00
2018-06-24T08:45:06.438Z,56800.00
2018-06-24T08:46:06.449Z,58464.00
2018-06-24T08:47:06.464Z,61632.00
2018-06-24T08:48:06.760Z,67136.00
2018-06-24T08:49:06.487Z,57888.00
2018-06-24T08:50:06.701Z,55456.00
2018-06-24T08:51:06.824Z,60192.00
2018-06-24T08:52:06.522Z,61312.00
2018-06-24T08:53:06.533Z,62880.00
2018-06-24T08:54:06.547Z,62304.00
2018-06-24T08:55:06.557Z,59072.00
2018-06-24T08:56:06.569Z,58208.00
2018-06-24T08:57:06.580Z,57344.00
2018-06-24T08:58:06.592Z,58176.00
2018-06-24T08:59:06.602Z,57984.00
2018-06-24T09:00:06.615Z,60672.00
2018-06-24T09:01:06.625Z,58976.00
2018-06-24T09:02:06.636Z,55168.00
2018-06-24T09:03:06.944Z,53216.00
2018-06-24T09:04:06.661Z,52576.00
2018-06-24T09:05:06.672Z,54176.00
2018-06-24T09:06:06.682Z,57248.00
2018-06-24T09:07:06.693Z,54528.00
2018-06-24T09:08:06.719Z,51136.00
2018-06-24T09:09:06.714Z,52768.00
2018-06-24T09:10:06.725Z,51008.00
2018-06-24T09:11:06.737Z,48096.00
2018-06-24T09:12:06.749Z,42816.00
2018-06-24T09:13:06.759Z,42336.00
2018-06-24T09:14:06.771Z,44352.00
2018-06-24T09:15:06.783Z,47712.00
2018-06-24T09:16:06.792Z,48096.00
2018-06-24T09:17:06.802Z,40096.00
2018-06-24T09:18:06.813Z,44896.00
2018-06-24T09:19:06.824Z,48544.00
2018-06-24T09:20:06.833Z,47872.00
2018-06-24T09:21:06.845Z,44832.00
2018-06-24T09:22:06.871Z,47008.00
2018-06-24T09:23:06.866Z,43712.00
2018-06-24T09:24:06.879Z,43168.00
2018-06-24T09:25:06.886Z,43776.00
2018-06-24T09:26:06.897Z,43104.00
2018-06-24T09:27:06.907Z,45280.00
2018-06-24T09:28:06.918Z,41728.00
2018-06-24T09:29:07.133Z,43488.00
2018-06-24T09:30:06.938Z,42880.00
2018-06-24T09:31:06.949Z,42368.00
2018-06-24T09:32:06.960Z,13340.00
2018-06-24T09:33:07.225Z,46208.00
2018-06-24T09:34:06.979Z,42080.00
2018-06-24T09:35:06.989Z,41760.00
2018-06-24T09:36:07.001Z,42304.00
2018-06-24T09:37:07.011Z,41696.00
2018-06-24T09:38:07.314Z,38784.00
2018-06-24T09:39:07.294Z,40480.00
2018-06-24T09:40:07.043Z,40672.00
2018-06-24T09:41:07.107Z,39264.00
2018-06-24T09:42:07.064Z,39040.00
2018-06-24T09:43:07.076Z,38528.00
2018-06-24T09:44:07.088Z,37504.00
2018-06-24T09:45:07.500Z,35648.00
2018-06-24T09:46:07.108Z,30816.00
2018-06-24T09:47:07.121Z,32672.00
2018-06-24T09:48:07.131Z,32416.00
2018-06-24T09:49:07.143Z,30400.00
2018-06-24T09:50:07.152Z,32672.00
2018-06-24T09:51:07.163Z,32096.00
2018-06-24T09:52:07.174Z,29856.00
2018-06-24T09:53:07.183Z,29248.00
2018-06-24T09:54:07.196Z,26432.00
2018-06-24T09:55:07.204Z,27712.00
2018-06-24T09:56:07.215Z,28160.00
2018-06-24T09:57:07.223Z,28416.00
2018-06-24T09:58:07.234Z,28800.00
2018-06-24T09:59:07.243Z,8252.00
2018-06-24T10:00:07.252Z,6272.00
2018-06-24T10:01:07.262Z,7256.00
2018-06-24T10:02:07.271Z,11132.00
2018-06-24T10:03:07.280Z,23392.00
2018-06-24T10:04:07.292Z,6280.00
2018-06-24T10:05:07.295Z,24960.00
2018-06-24T10:06:07.304Z,23680.00
2018-06-24T10:07:07.312Z,23936.00
2018-06-24T10:08:07.319Z,24192.00
2018-06-24T10:09:07.328Z,23488.00
2018-06-24T10:10:07.337Z,24736.00
2018-06-24T10:11:07.401Z,21632.00
2018-06-24T10:12:07.355Z,21184.00
2018-06-24T10:13:07.362Z,22112.00
2018-06-24T10:14:07.370Z,19872.00
2018-06-24T10:15:07.387Z,18624.00
2018-06-24T10:16:07.392Z,17696.00
2018-06-24T10:17:07.398Z,7020.00
2018-06-24T10:18:07.406Z,8332.00
2018-06-24T10:19:07.415Z,16256.00
2018-06-24T10:20:07.710Z,14592.00
2018-06-24T10:21:07.430Z,5484.00
2018-06-24T10:22:07.438Z,4644.00
2018-06-24T10:23:07.446Z,3972.00
2018-06-24T10:24:07.453Z,3872.00
2018-06-24T10:25:07.458Z,4008.00
2018-06-24T10:26:07.465Z,4984.00
2018-06-24T10:27:07.472Z,5948.00
2018-06-24T10:28:07.480Z,6712.00
2018-06-24T10:29:07.484Z,6240.00
2018-06-24T10:30:07.491Z,5872.00
2018-06-24T10:31:07.497Z,9212.00
2018-06-24T10:32:07.501Z,7092.00
2018-06-24T10:33:07.506Z,10520.00
2018-06-24T10:34:07.515Z,7784.00
2018-06-24T10:35:07.522Z,10804.00
2018-06-24T10:36:07.526Z,10448.00
2018-06-24T10:37:07.537Z,10792.00
2018-06-24T10:38:07.539Z,9232.00
2018-06-24T10:39:07.549Z,9496.00
2018-06-24T10:40:07.553Z,7796.00
2018-06-24T10:41:07.604Z,6292.00
2018-06-24T10:42:07.564Z,5620.00
2018-06-24T10:43:07.570Z,5892.00
2018-06-24T10:44:07.576Z,6128.00
2018-06-24T10:45:07.586Z,5876.00
2018-06-24T10:46:07.588Z,5352.00
2018-06-24T10:47:07.596Z,4844.00
2018-06-24T10:48:07.599Z,4812.00
2018-06-24T10:49:07.605Z,5072.00
2018-06-24T10:50:08.056Z,5432.00
2018-06-24T10:51:07.617Z,6000.00
2018-06-24T10:52:07.622Z,6496.00
2018-06-24T10:53:07.625Z,7284.00
2018-06-24T10:54:07.632Z,8544.00
2018-06-24T10:55:07.640Z,11424.00
2018-06-24T10:56:07.643Z,9916.00
2018-06-24T10:57:07.648Z,7560.00
2018-06-24T10:58:07.651Z,6328.00
2018-06-24T10:59:07.658Z,6764.00
2018-06-24T11:00:07.664Z,6872.00
2018-06-24T11:01:07.669Z,6492.00
2018-06-24T11:02:07.681Z,5988.00
2018-06-24T11:03:07.681Z,6272.00
2018-06-24T11:04:07.684Z,6272.00
2018-06-24T11:05:07.690Z,6912.00
2018-06-24T11:06:07.981Z,7092.00
2018-06-24T11:07:07.886Z,6864.00
2018-06-24T11:08:07.736Z,9652.00
2018-06-24T11:09:07.708Z,9604.00
2018-06-24T11:10:07.714Z,9072.00
2018-06-24T11:11:07.719Z,8500.00
2018-06-24T11:12:07.724Z,8280.00
2018-06-24T11:13:07.728Z,8064.00
2018-06-24T11:14:07.739Z,7444.00
2018-06-24T11:15:07.739Z,6980.00
2018-06-24T11:16:07.747Z,6068.00
2018-06-24T11:17:07.766Z,6248.00
2018-06-24T11:18:07.757Z,6508.00
2018-06-24T11:19:07.765Z,6436.00
2018-06-24T11:20:07.768Z,6916.00
2018-06-24T11:21:07.772Z,5824.00
2018-06-24T11:22:07.779Z,5812.00
2018-06-24T11:23:07.784Z,6144.00
2018-06-24T11:24:07.789Z,7264.00
2018-06-24T11:25:07.796Z,6736.00
2018-06-24T11:26:07.803Z,8704.00
2018-06-24T11:27:07.927Z,9320.00
2018-06-24T11:28:07.813Z,9604.00
2018-06-24T11:29:07.818Z,9456.00
2018-06-24T11:30:07.824Z,7416.00
2018-06-24T11:31:07.846Z,6808.00
2018-06-24T11:32:07.836Z,6580.00
2018-06-24T11:33:07.841Z,6288.00
2018-06-24T11:34:07.846Z,6088.00
2018-06-24T11:35:07.854Z,6040.00
2018-06-24T11:36:07.857Z,6256.00
2018-06-24T11:37:07.864Z,5764.00
2018-06-24T11:38:07.867Z,5768.00
2018-06-24T11:39:07.875Z,6324.00
2018-06-24T11:40:07.879Z,6028.00
2018-06-24T11:41:07.886Z,7408.00
2018-06-24T11:42:07.889Z,7572.00
2018-06-24T11:43:07.896Z,8056.00
2018-06-24T11:44:07.903Z,7832.00
2018-06-24T11:45:07.904Z,8496.00
2018-06-24T11:46:07.908Z,8788.00
2018-06-24T11:47:07.914Z,10048.00
2018-06-24T11:48:07.921Z,10956.00
2018-06-24T11:49:07.922Z,10988.00
2018-06-24T11:50:07.928Z,11676.00
2018-06-24T11:51:07.934Z,11008.00
2018-06-24T11:52:07.959Z,11388.00
2018-06-24T11:53:08.236Z,10092.00
2018-06-24T11:54:08.262Z,10512.00
2018-06-24T11:55:07.954Z,10116.00
2018-06-24T11:56:08.230Z,10344.00
2018-06-24T11:57:07.966Z,9968.00
2018-06-24T11:58:07.971Z,10416.00
2018-06-24T11:59:07.977Z,7224.00
2018-06-24T12:00:07.985Z,6692.00
2018-06-24T12:01:07.988Z,7836.00
2018-06-24T12:02:08.037Z,7048.00
2018-06-24T12:03:08.003Z,6444.00
2018-06-24T12:04:08.042Z,7008.00
2018-06-24T12:05:08.011Z,6216.00
2018-06-24T12:06:08.019Z,5076.00
2018-06-24T12:07:08.043Z,4808.00
2018-06-24T12:08:08.030Z,4940.00
2018-06-24T12:09:08.034Z,5172.00
2018-06-24T12:10:08.039Z,5472.00
2018-06-24T12:11:08.174Z,5432.00
2018-06-24T12:12:08.299Z,5160.00
2018-06-24T12:13:08.316Z,4672.00
2018-06-24T12:14:08.058Z,4012.00
2018-06-24T12:15:08.064Z,3504.00
2018-06-24T12:16:08.068Z,3260.00
2018-06-24T12:17:08.073Z,3260.00
2018-06-24T12:18:08.102Z,3256.00
2018-06-24T12:19:08.083Z,3500.00
2018-06-24T12:20:08.087Z,3368.00
2018-06-24T12:21:08.090Z,4244.00
2018-06-24T12:22:08.094Z,4776.00
2018-06-24T12:23:08.099Z,4672.00
2018-06-24T12:24:08.103Z,4652.00
2018-06-24T12:25:08.105Z,5528.00
2018-06-24T12:26:08.110Z,6612.00
2018-06-24T12:27:08.114Z,8428.00
2018-06-24T12:28:08.119Z,6648.00
2018-06-24T12:29:08.123Z,8556.00
2018-06-24T12:30:08.127Z,8624.00
2018-06-24T12:31:08.132Z,6480.00
2018-06-24T12:32:08.135Z,6776.00
2018-06-24T12:33:08.139Z,8772.00
2018-06-24T12:34:08.144Z,8820.00
2018-06-24T12:35:08.149Z,8660.00
2018-06-24T12:36:08.153Z,7888.00
2018-06-24T12:37:08.157Z,7400.00
2018-06-24T12:38:08.163Z,6648.00
2018-06-24T12:39:08.442Z,6604.00
2018-06-24T12:40:08.547Z,6180.00
2018-06-24T12:41:08.176Z,5876.00
2018-06-24T12:42:08.179Z,6140.00
2018-06-24T12:43:08.419Z,5864.00
2018-06-24T12:44:08.189Z,5384.00
2018-06-24T12:45:08.192Z,4944.00
2018-06-24T12:46:08.198Z,4456.00
2018-06-24T12:47:08.203Z,4256.00
2018-06-24T12:48:08.207Z,4480.00
2018-06-24T12:49:08.211Z,4744.00
2018-06-24T12:50:08.215Z,4992.00
2018-06-24T12:51:08.220Z,5012.00
2018-06-24T12:52:08.225Z,5176.00
2018-06-24T12:53:08.229Z,5224.00
2018-06-24T12:54:08.233Z,5224.00
2018-06-24T12:55:08.236Z,5160.00
2018-06-24T12:56:08.242Z,4916.00
2018-06-24T12:57:08.246Z,4796.00
2018-06-24T12:58:08.262Z,4764.00
2018-06-24T12:59:08.355Z,4932.00
2018-06-24T13:00:08.469Z,5192.00
2018-06-24T13:01:08.263Z,5564.00
2018-06-24T13:02:08.267Z,5832.00
2018-06-24T13:03:08.276Z,5860.00
2018-06-24T13:04:08.276Z,5228.00
2018-06-24T13:05:08.280Z,4828.00
2018-06-24T13:06:08.285Z,4448.00
2018-06-24T13:07:08.338Z,4196.00
2018-06-24T13:08:08.294Z,4084.00
2018-06-24T13:09:08.297Z,3972.00
2018-06-24T13:10:08.301Z,4264.00
2018-06-24T13:11:08.305Z,4656.00
2018-06-24T13:12:08.613Z,4972.00
2018-06-24T13:13:08.313Z,5420.00
2018-06-24T13:14:08.324Z,5532.00
2018-06-24T13:15:08.322Z,7496.00
2018-06-24T13:16:08.326Z,5240.00
2018-06-24T13:17:08.330Z,4456.00
2018-06-24T13:18:08.335Z,4316.00
2018-06-24T13:19:08.340Z,4280.00
2018-06-24T13:20:08.344Z,4020.00
2018-06-24T13:21:08.391Z,4072.00
2018-06-24T13:22:08.353Z,4212.00
2018-06-24T13:23:08.356Z,4284.00
2018-06-24T13:24:08.362Z,4232.00
2018-06-24T13:25:08.364Z,4256.00
2018-06-24T13:26:08.372Z,4200.00
2018-06-24T13:27:08.374Z,4096.00
2018-06-24T13:28:08.381Z,4280.00
2018-06-24T13:29:08.383Z,4684.00
2018-06-24T13:30:08.388Z,4924.00
2018-06-24T13:31:08.392Z,5180.00
2018-06-24T13:32:08.407Z,5632.00
2018-06-24T13:33:08.400Z,8156.00
2018-06-24T13:34:08.403Z,7272.00
2018-06-24T13:35:08.407Z,10204.00
2018-06-24T13:36:08.412Z,10604.00
2018-06-24T13:37:08.417Z,10356.00
2018-06-24T13:38:08.421Z,10320.00
2018-06-24T13:39:08.427Z,9952.00
2018-06-24T13:40:08.431Z,9408.00
2018-06-24T13:41:08.435Z,9836.00
2018-06-24T13:42:08.440Z,5700.00
2018-06-24T13:43:08.446Z,5240.00
2018-06-24T13:44:08.453Z,4976.00
2018-06-24T13:45:08.454Z,4712.00
2018-06-24T13:46:08.461Z,4564.00
2018-06-24T13:47:08.468Z,4588.00
2018-06-24T13:48:08.472Z,4344.00
2018-06-24T13:49:08.475Z,4600.00
2018-06-24T13:50:08.480Z,3664.00
2018-06-24T13:51:08.483Z,3168.00
2018-06-24T13:52:08.488Z,3000.00
2018-06-24T13:53:08.493Z,2916.00
2018-06-24T13:54:08.497Z,2880.00
2018-06-24T13:55:08.502Z,2820.00
2018-06-24T13:56:08.506Z,2704.00
2018-06-24T13:57:08.508Z,2704.00
2018-06-24T13:58:08.614Z,2588.00
2018-06-24T13:59:08.518Z,2692.00
2018-06-24T14:00:08.521Z,2508.00
2018-06-24T14:01:08.525Z,2600.00
2018-06-24T14:02:08.528Z,2884.00
2018-06-24T14:03:08.532Z,3140.00
2018-06-24T14:04:08.540Z,3284.00
2018-06-24T14:05:08.540Z,3520.00
2018-06-24T14:06:08.604Z,3744.00
2018-06-24T14:07:08.548Z,3864.00
2018-06-24T14:08:08.552Z,3984.00
2018-06-24T14:09:08.554Z,5496.00
2018-06-24T14:10:08.559Z,6340.00
2018-06-24T14:11:08.866Z,4900.00
2018-06-24T14:12:08.765Z,4264.00
2018-06-24T14:13:08.569Z,4120.00
2018-06-24T14:14:08.722Z,4544.00
2018-06-24T14:15:08.580Z,4036.00
2018-06-24T14:16:08.581Z,3948.00
2018-06-24T14:17:08.584Z,3992.00
2018-06-24T14:18:08.589Z,4184.00
2018-06-24T14:19:08.592Z,4508.00
2018-06-24T14:20:08.595Z,4976.00
2018-06-24T14:21:08.598Z,4980.00
2018-06-24T14:22:08.603Z,4880.00
2018-06-24T14:23:08.628Z,4800.00
2018-06-24T14:24:08.611Z,4500.00
2018-06-24T14:25:08.612Z,4228.00
2018-06-24T14:26:08.618Z,4276.00
2018-06-24T14:27:08.621Z,4292.00
2018-06-24T14:28:08.625Z,4196.00
2018-06-24T14:29:08.627Z,4280.00
2018-06-24T14:30:08.633Z,4252.00
2018-06-24T14:31:08.636Z,4120.00
2018-06-24T14:32:08.643Z,4816.00
2018-06-24T14:33:08.642Z,4708.00
2018-06-24T14:34:08.651Z,4032.00
2018-06-24T14:35:08.650Z,3960.00
2018-06-24T14:36:08.655Z,3856.00
2018-06-24T14:37:08.659Z,3848.00
2018-06-24T14:38:08.663Z,3792.00
2018-06-24T14:39:08.666Z,3712.00
2018-06-24T14:40:08.671Z,3668.00
2018-06-24T14:41:08.672Z,3820.00
2018-06-24T14:42:08.678Z,4284.00
2018-06-24T14:43:08.680Z,4368.00
2018-06-24T14:44:08.785Z,4228.00
2018-06-24T14:45:08.690Z,4088.00
2018-06-24T14:46:08.694Z,3836.00
2018-06-24T14:47:08.698Z,3624.00
2018-06-24T14:48:08.701Z,3480.00
2018-06-24T14:49:08.711Z,3408.00
2018-06-24T14:50:08.709Z,3500.00
2018-06-24T14:51:08.712Z,3676.00
2018-06-24T14:52:08.721Z,3772.00
2018-06-24T14:53:08.720Z,3796.00
2018-06-24T14:54:08.723Z,3668.00
2018-06-24T14:55:08.732Z,3536.00
2018-06-24T14:56:08.732Z,3468.00
2018-06-24T14:57:08.735Z,3360.00
2018-06-24T14:58:08.739Z,3432.00
2018-06-24T14:59:08.744Z,4348.00
2018-06-24T15:00:08.747Z,4244.00
2018-06-24T15:01:08.751Z,3920.00
2018-06-24T15:02:08.754Z,3504.00
2018-06-24T15:03:08.758Z,3368.00
2018-06-24T15:04:08.762Z,3304.00
2018-06-24T15:05:08.764Z,3296.00
2018-06-24T15:06:08.769Z,3240.00
2018-06-24T15:07:08.772Z,3172.00
2018-06-24T15:08:08.777Z,3032.00
2018-06-24T15:09:08.781Z,2784.00
2018-06-24T15:10:08.783Z,2608.00
2018-06-24T15:11:08.786Z,2492.00
2018-06-24T15:12:08.795Z,2556.00
2018-06-24T15:13:08.793Z,2728.00
2018-06-24T15:14:08.795Z,2840.00
2018-06-24T15:15:08.800Z,2788.00
2018-06-24T15:16:08.804Z,2716.00
2018-06-24T15:17:08.807Z,2588.00
2018-06-24T15:18:08.811Z,2540.00
2018-06-24T15:19:08.814Z,2768.00
2018-06-24T15:20:08.819Z,2956.00
2018-06-24T15:21:08.820Z,2976.00
2018-06-24T15:22:08.827Z,3076.00
2018-06-24T15:23:08.828Z,3008.00
2018-06-24T15:24:08.832Z,2848.00
2018-06-24T15:25:08.834Z,2780.00
2018-06-24T15:26:08.838Z,2740.00
2018-06-24T15:27:08.842Z,2716.00
2018-06-24T15:28:08.846Z,2692.00
2018-06-24T15:29:08.848Z,2668.00
2018-06-24T15:30:08.884Z,2652.00
2018-06-24T15:31:08.857Z,2592.00
2018-06-24T15:32:08.860Z,2384.00
2018-06-24T15:33:08.865Z,2088.00
2018-06-24T15:34:08.867Z,1928.00
2018-06-24T15:35:08.869Z,1992.00
2018-06-24T15:36:08.872Z,2164.00
2018-06-24T15:37:08.874Z,2348.00
2018-06-24T15:38:08.878Z,2752.00
2018-06-24T15:39:08.883Z,3084.00
2018-06-24T15:40:08.885Z,3536.00
2018-06-24T15:41:08.887Z,2764.00
2018-06-24T15:42:08.892Z,2636.00
2018-06-24T15:43:08.894Z,3280.00
2018-06-24T15:44:08.898Z,2548.00
2018-06-24T15:45:08.902Z,3168.00
2018-06-24T15:46:08.904Z,3100.00
2018-06-24T15:47:08.909Z,2600.00
2018-06-24T15:48:08.912Z,2404.00
2018-06-24T15:49:08.916Z,2640.00
2018-06-24T15:50:08.919Z,2320.00
2018-06-24T15:51:08.923Z,2084.00
2018-06-24T15:52:08.929Z,1812.00
2018-06-24T15:53:08.927Z,1652.00
2018-06-24T15:54:08.931Z,1572.00
2018-06-24T15:55:08.935Z,1456.00
2018-06-24T15:56:08.939Z,1284.00
2018-06-24T15:57:08.946Z,1180.00
2018-06-24T15:58:08.945Z,1144.00
2018-06-24T15:59:08.949Z,1124.00
2018-06-24T16:00:08.953Z,1100.00
2018-06-24T16:01:08.956Z,1088.00
2018-06-24T16:02:08.957Z,1072.00
2018-06-24T16:03:08.962Z,1060.00
2018-06-24T16:04:08.964Z,1060.00
2018-06-24T16:05:08.967Z,1084.00
2018-06-24T16:06:08.972Z,1132.00
2018-06-24T16:07:08.974Z,1220.00
2018-06-24T16:08:08.976Z,1292.00
2018-06-24T16:09:08.980Z,1320.00
2018-06-24T16:10:08.982Z,1288.00
2018-06-24T16:11:08.984Z,1240.00
2018-06-24T16:12:08.988Z,1196.00
2018-06-24T16:13:08.990Z,1236.00
2018-06-24T16:14:08.995Z,1324.00
2018-06-24T16:15:08.997Z,1380.00
2018-06-24T16:16:09.001Z,1408.00
2018-06-24T16:17:09.002Z,1420.00
2018-06-24T16:18:09.005Z,1440.00
2018-06-24T16:19:09.057Z,1424.00
2018-06-24T16:20:09.015Z,1360.00
2018-06-24T16:21:09.169Z,1340.00
2018-06-24T16:22:09.016Z,1356.00
2018-06-24T16:23:09.018Z,1320.00
2018-06-24T16:24:09.021Z,1300.00
2018-06-24T16:25:09.027Z,1272.00
2018-06-24T16:26:09.026Z,1336.00
2018-06-24T16:27:09.028Z,1504.00
2018-06-24T16:28:09.031Z,1664.00
2018-06-24T16:29:09.032Z,1740.00
2018-06-24T16:30:09.035Z,1748.00
2018-06-24T16:31:09.037Z,1732.00
2018-06-24T16:32:09.039Z,1620.00
2018-06-24T16:33:09.042Z,1456.00
2018-06-24T16:34:09.051Z,1340.00
2018-06-24T16:35:09.047Z,1308.00
2018-06-24T16:36:09.049Z,1316.00
2018-06-24T16:37:09.051Z,1316.00
2018-06-24T16:38:09.052Z,1316.00
2018-06-24T16:39:09.055Z,1312.00
2018-06-24T16:40:09.058Z,1280.00
2018-06-24T16:41:09.060Z,1224.00
2018-06-24T16:42:09.064Z,1112.00
2018-06-24T16:43:09.064Z,988.00
2018-06-24T16:44:09.067Z,876.00
2018-06-24T16:45:09.070Z,784.00
2018-06-24T16:46:09.071Z,748.00
2018-06-24T16:47:09.072Z,752.00
2018-06-24T16:48:09.078Z,732.00
2018-06-24T16:49:09.075Z,708.00
2018-06-24T16:50:09.078Z,704.00
2018-06-24T16:51:09.081Z,704.00
2018-06-24T16:52:09.084Z,720.00
2018-06-24T16:53:09.085Z,764.00
2018-06-24T16:54:09.088Z,820.00
2018-06-24T16:55:09.089Z,900.00
2018-06-24T16:56:09.092Z,988.00
2018-06-24T16:57:09.093Z,1056.00
2018-06-24T16:58:09.128Z,1092.00
2018-06-24T16:59:09.096Z,1112.00
2018-06-24T17:00:09.100Z,1132.00
2018-06-24T17:01:09.102Z,1156.00
2018-06-24T17:02:09.102Z,1208.00
2018-06-24T17:03:09.104Z,1248.00
2018-06-24T17:04:09.108Z,1232.00
2018-06-24T17:05:09.110Z,1192.00
2018-06-24T17:06:09.111Z,1148.00
2018-06-24T17:07:09.112Z,1108.00
2018-06-24T17:08:09.115Z,1072.00
2018-06-24T17:09:09.116Z,1064.00
2018-06-24T17:10:09.119Z,1052.00
2018-06-24T17:11:09.122Z,1008.00
2018-06-24T17:12:09.124Z,1008.00
2018-06-24T17:13:09.126Z,1028.00
2018-06-24T17:14:09.129Z,1060.00
2018-06-24T17:15:09.131Z,1060.00
2018-06-24T17:16:09.134Z,1040.00
2018-06-24T17:17:09.163Z,1036.00
2018-06-24T17:18:09.147Z,1024.00
2018-06-24T17:19:09.140Z,1016.00
2018-06-24T17:20:09.167Z,996.00
2018-06-24T17:21:09.147Z,944.00
2018-06-24T17:22:09.146Z,896.00
2018-06-24T17:23:09.149Z,860.00
2018-06-24T17:24:09.151Z,832.00
2018-06-24T17:25:09.151Z,804.00
2018-06-24T17:26:09.154Z,788.00
2018-06-24T17:27:09.161Z,796.00
2018-06-24T17:28:09.226Z,800.00
2018-06-24T17:29:09.161Z,808.00
2018-06-24T17:30:09.164Z,800.00
2018-06-24T17:31:09.169Z,768.00
2018-06-24T17:32:09.168Z,748.00
2018-06-24T17:33:09.169Z,752.00
2018-06-24T17:34:09.173Z,760.00
2018-06-24T17:35:09.175Z,792.00
2018-06-24T17:36:09.177Z,836.00
2018-06-24T17:37:09.179Z,880.00
2018-06-24T17:38:09.181Z,912.00
2018-06-24T17:39:09.189Z,924.00
2018-06-24T17:40:09.185Z,912.00
2018-06-24T17:41:09.188Z,888.00
2018-06-24T17:42:09.191Z,848.00
2018-06-24T17:43:09.192Z,792.00
2018-06-24T17:44:09.194Z,732.00
2018-06-24T17:45:09.197Z,680.00
2018-06-24T17:46:09.200Z,600.00
2018-06-24T17:47:09.202Z,532.00
2018-06-24T17:48:09.204Z,496.00
2018-06-24T17:49:09.205Z,468.00
2018-06-24T17:50:09.211Z,428.00
2018-06-24T17:51:09.211Z,372.00
2018-06-24T17:52:09.211Z,332.00
2018-06-24T17:53:09.279Z,312.00
2018-06-24T17:54:09.220Z,292.00
2018-06-24T17:55:09.218Z,260.00
2018-06-24T17:56:09.220Z,228.00
2018-06-24T17:57:09.224Z,208.00
2018-06-24T17:58:09.227Z,196.00
2018-06-24T17:59:09.226Z,188.00
2018-06-24T18:00:09.229Z,196.00
2018-06-24T18:01:09.230Z,212.00
2018-06-24T18:02:09.232Z,212.00
2018-06-24T18:03:09.233Z,192.00
2018-06-24T18:04:09.236Z,168.00
2018-06-24T18:05:09.237Z,156.00
2018-06-24T18:06:09.239Z,152.00
2018-06-24T18:07:09.241Z,152.00
2018-06-24T18:08:09.278Z,160.00
2018-06-24T18:09:09.247Z,160.00
2018-06-24T18:10:09.250Z,152.00
2018-06-24T18:11:09.284Z,148.00
2018-06-24T18:12:09.251Z,136.00
2018-06-24T18:13:09.251Z,124.00
2018-06-24T18:14:09.254Z,116.00
2018-06-24T18:15:09.261Z,108.00
2018-06-24T18:16:09.257Z,100.00
2018-06-24T18:17:09.258Z,88.00
2018-06-24T18:18:09.260Z,76.00
2018-06-24T18:19:09.261Z,72.00
2018-06-24T18:20:09.262Z,64.00
2018-06-24T18:21:09.266Z,60.00
2018-06-24T18:22:09.265Z,56.00
2018-06-24T18:23:09.268Z,52.00
2018-06-24T18:24:09.269Z,48.00
2018-06-24T18:25:09.271Z,40.00
2018-06-24T18:26:09.272Z,36.00
2018-06-24T18:27:09.275Z,36.00
2018-06-24T18:28:09.342Z,32.00
2018-06-24T18:29:09.280Z,32.00
2018-06-24T18:30:09.279Z,28.00
2018-06-24T18:31:09.281Z,32.00
2018-06-24T18:32:09.291Z,28.00
2018-06-24T18:33:09.323Z,24.00
2018-06-24T18:34:09.286Z,24.00
2018-06-24T18:35:09.289Z,20.00
2018-06-24T18:36:09.287Z,24.00
2018-06-24T18:37:09.288Z,24.00
2018-06-24T18:38:09.289Z,24.00
2018-06-24T18:39:09.298Z,24.00
2018-06-24T18:40:09.293Z,20.00
2018-06-24T18:41:09.295Z,20.00
2018-06-24T18:42:09.297Z,24.00
2018-06-24T18:43:09.298Z,24.00
2018-06-24T18:44:09.302Z,24.00
2018-06-24T18:45:09.301Z,20.00
2018-06-24T18:46:09.302Z,20.00
2018-06-24T18:47:09.303Z,20.00
2018-06-24T18:48:09.306Z,24.00
2018-06-24T18:49:09.305Z,28.00
2018-06-24T18:50:09.308Z,28.00
2018-06-24T18:51:09.307Z,28.00
2018-06-24T18:52:09.309Z,28.00
2018-06-24T18:53:09.311Z,24.00
2018-06-24T18:54:09.312Z,28.00
2018-06-24T18:55:09.314Z,24.00
2018-06-24T18:56:09.316Z,28.00
2018-06-24T18:57:09.316Z,24.00
2018-06-24T18:58:09.319Z,24.00
2018-06-24T18:59:09.319Z,24.00
2018-06-24T19:00:09.320Z,24.00
2018-06-24T19:01:09.321Z,20.00
2018-06-24T19:02:09.418Z,24.00
2018-06-24T19:03:09.405Z,20.00
2018-06-24T19:04:09.326Z,20.00
2018-06-24T19:05:09.327Z,20.00
2018-06-24T19:06:09.328Z,16.00
2018-06-24T19:07:09.385Z,16.00
2018-06-24T19:08:09.330Z,16.00
2018-06-24T19:09:09.330Z,16.00
2018-06-24T19:10:09.336Z,8.00
2018-06-24T19:11:09.334Z,12.00
2018-06-24T19:12:09.338Z,12.00
2018-06-24T19:13:09.337Z,12.00
2018-06-24T19:14:09.336Z,12.00
2018-06-24T19:15:09.338Z,8.00
2018-06-24T19:16:09.340Z,8.00
2018-06-24T19:17:09.341Z,4.00
2018-06-24T19:18:09.341Z,8.00
2018-06-24T19:19:09.343Z,4.00
2018-06-24T19:20:09.345Z,4.00
2018-06-24T19:21:09.348Z,8.00
2018-06-24T19:22:09.350Z,4.00
2018-06-24T19:23:09.347Z,4.00
2018-06-24T19:24:09.349Z,4.00
2018-06-24T19:25:09.350Z,4.00
2018-06-24T19:26:09.351Z,4.00
2018-06-24T19:27:09.357Z,4.00
2018-06-24T19:28:09.354Z,4.00
2018-06-24T19:29:09.355Z,4.00
2018-06-24T19:30:09.356Z,0.00
2018-06-24T19:31:09.357Z,0.00
2018-06-24T19:32:09.358Z,0.00
2018-06-24T19:33:09.358Z,4.00
2018-06-24T19:34:09.362Z,4.00
2018-06-24T19:35:09.361Z,0.00
2018-06-24T19:36:09.362Z,0.00
2018-06-24T19:37:09.364Z,0.00
2018-06-24T19:38:09.364Z,0.00
2018-06-24T19:39:09.367Z,0.00
2018-06-24T19:40:09.366Z,0.00
2018-06-24T19:41:09.367Z,0.00
2018-06-24T19:42:09.368Z,0.00
2018-06-24T19:43:09.368Z,0.00
2018-06-24T19:44:09.370Z,0.00
2018-06-24T19:45:09.370Z,0.00
2018-06-24T19:46:09.378Z,0.00
2018-06-24T19:47:09.374Z,0.00
2018-06-24T19:48:09.374Z,0.00
2018-06-24T19:49:09.373Z,0.00
2018-06-24T19:50:09.376Z,0.00
2018-06-24T19:51:09.377Z,0.00
2018-06-24T19:52:09.377Z,0.00
2018-06-24T19:53:09.378Z,0.00
2018-06-24T19:54:09.378Z,0.00
2018-06-24T19:55:09.380Z,0.00
2018-06-24T19:56:09.382Z,0.00
2018-06-24T19:57:09.382Z,0.00
2018-06-24T19:58:09.382Z,0.00
2018-06-24T19:59:09.381Z,0.00
2018-06-24T20:00:09.384Z,0.00
2018-06-24T20:01:09.383Z,0.00